sensor_id;sensor_type;location;lat;lon;timestamp;P1;durP1;ratioP1;P2;durP2;ratioP2
2299;SDS011;1158;48.750;9.078;2023-07-28T00:00:43;7.53;;;5.70;;
2299;SDS011;1158;48.750;9.078;2023-07-28T00:03:10;8.00;;;5.27;;
2299;SDS011;1158;48.750;9.078;2023-07-28T00:05:36;6.23;;;4.80;;
2299;SDS011;1158;48.750;9.078;2023-07-28T00:08:03;7.90;;;5.30;;
2299;SDS011;1158;48.750;9.078;2023-07-28T00:10:30;7.10;;;5.77;;
2299;SDS011;1158;48.750;9.078;2023-07-28T00:12:57;9.67;;;5.57;;
2299;SDS011;1158;48.750;9.078;2023-07-28T00:15:24;11.00;;;6.07;;
2299;SDS011;1158;48.750;9.078;2023-07-28T00:17:52;7.73;;;5.20;;
2299;SDS011;1158;48.750;9.078;2023-07-28T00:20:19;10.10;;;5.60;;
2299;SDS011;1158;48.750;9.078;2023-07-28T00:22:46;7.50;;;6.00;;
2299;SDS011;1158;48.750;9.078;2023-07-28T00:25:13;6.37;;;5.20;;
2299;SDS011;1158;48.750;9.078;2023-07-28T00:27:39;11.23;;;5.83;;
2299;SDS011;1158;48.750;9.078;2023-07-28T00:30:06;8.50;;;5.70;;
2299;SDS011;1158;48.750;9.078;2023-07-28T00:32:34;6.40;;;4.57;;
2299;SDS011;1158;48.750;9.078;2023-07-28T00:35:02;7.97;;;5.10;;
2299;SDS011;1158;48.750;9.078;2023-07-28T00:37:29;9.90;;;5.47;;
2299;SDS011;1158;48.750;9.078;2023-07-28T00:39:56;10.40;;;5.37;;
2299;SDS011;1158;48.750;9.078;2023-07-28T00:42:22;7.93;;;5.57;;
2299;SDS011;1158;48.750;9.078;2023-07-28T00:44:49;6.97;;;4.47;;
2299;SDS011;1158;48.750;9.078;2023-07-28T00:47:16;10.80;;;5.10;;
2299;SDS011;1158;48.750;9.078;2023-07-28T00:49:43;6.83;;;4.97;;
2299;SDS011;1158;48.750;9.078;2023-07-28T00:52:11;9.50;;;5.13;;
2299;SDS011;1158;48.750;9.078;2023-07-28T00:54:38;8.63;;;5.90;;
2299;SDS011;1158;48.750;9.078;2023-07-28T00:57:05;8.47;;;5.60;;
2299;SDS011;1158;48.750;9.078;2023-07-28T00:59:32;14.10;;;5.70;;
2299;SDS011;1158;48.750;9.078;2023-07-28T01:01:58;6.53;;;5.63;;
2299;SDS011;1158;48.750;9.078;2023-07-28T01:04:25;7.10;;;5.80;;
2299;SDS011;1158;48.750;9.078;2023-07-28T01:06:53;7.57;;;5.60;;
2299;SDS011;1158;48.750;9.078;2023-07-28T01:09:29;6.40;;;5.53;;
2299;SDS011;1158;48.750;9.078;2023-07-28T01:12:05;11.27;;;5.40;;
2299;SDS011;1158;48.750;9.078;2023-07-28T01:14:33;9.13;;;5.53;;
2299;SDS011;1158;48.750;9.078;2023-07-28T01:17:00;8.80;;;5.70;;
2299;SDS011;1158;48.750;9.078;2023-07-28T01:19:27;8.30;;;4.97;;
2299;SDS011;1158;48.750;9.078;2023-07-28T01:21:57;6.80;;;6.00;;
2299;SDS011;1158;48.750;9.078;2023-07-28T01:24:35;9.20;;;6.00;;
2299;SDS011;1158;48.750;9.078;2023-07-28T01:27:09;9.73;;;5.93;;
2299;SDS011;1158;48.750;9.078;2023-07-28T01:29:36;7.43;;;5.87;;
2299;SDS011;1158;48.750;9.078;2023-07-28T01:32:04;6.20;;;5.60;;
2299;SDS011;1158;48.750;9.078;2023-07-28T01:34:31;6.70;;;5.40;;
2299;SDS011;1158;48.750;9.078;2023-07-28T01:36:58;9.77;;;6.70;;
2299;SDS011;1158;48.750;9.078;2023-07-28T01:39:24;8.70;;;5.70;;
2299;SDS011;1158;48.750;9.078;2023-07-28T01:41:51;8.73;;;6.40;;
2299;SDS011;1158;48.750;9.078;2023-07-28T01:44:19;6.90;;;5.20;;
2299;SDS011;1158;48.750;9.078;2023-07-28T01:46:46;6.90;;;5.60;;
2299;SDS011;1158;48.750;9.078;2023-07-28T01:49:13;9.17;;;6.07;;
2299;SDS011;1158;48.750;9.078;2023-07-28T01:51:39;6.87;;;5.30;;
2299;SDS011;1158;48.750;9.078;2023-07-28T01:54:06;7.87;;;5.03;;
2299;SDS011;1158;48.750;9.078;2023-07-28T01:56:33;9.90;;;5.90;;
2299;SDS011;1158;48.750;9.078;2023-07-28T01:58:59;9.20;;;5.10;;
2299;SDS011;1158;48.750;9.078;2023-07-28T02:01:27;9.70;;;5.47;;
2299;SDS011;1158;48.750;9.078;2023-07-28T02:03:55;9.60;;;5.70;;
2299;SDS011;1158;48.750;9.078;2023-07-28T02:06:22;11.27;;;6.00;;
2299;SDS011;1158;48.750;9.078;2023-07-28T02:08:49;7.87;;;5.80;;
2299;SDS011;1158;48.750;9.078;2023-07-28T02:11:16;7.83;;;5.90;;
2299;SDS011;1158;48.750;9.078;2023-07-28T02:13:42;7.00;;;5.80;;
2299;SDS011;1158;48.750;9.078;2023-07-28T02:16:09;9.30;;;5.83;;
2299;SDS011;1158;48.750;9.078;2023-07-28T02:18:37;10.43;;;6.20;;
2299;SDS011;1158;48.750;9.078;2023-07-28T02:21:04;7.03;;;5.60;;
2299;SDS011;1158;48.750;9.078;2023-07-28T02:23:31;10.30;;;5.87;;
2299;SDS011;1158;48.750;9.078;2023-07-28T02:25:57;6.70;;;5.73;;
2299;SDS011;1158;48.750;9.078;2023-07-28T02:28:24;7.17;;;6.03;;
2299;SDS011;1158;48.750;9.078;2023-07-28T02:30:51;8.27;;;6.20;;
2299;SDS011;1158;48.750;9.078;2023-07-28T02:33:17;7.77;;;5.57;;
2299;SDS011;1158;48.750;9.078;2023-07-28T02:35:45;8.00;;;5.43;;
2299;SDS011;1158;48.750;9.078;2023-07-28T02:38:12;11.97;;;6.60;;
2299;SDS011;1158;48.750;9.078;2023-07-28T02:40:39;7.33;;;6.30;;
2299;SDS011;1158;48.750;9.078;2023-07-28T02:43:06;7.10;;;6.07;;
2299;SDS011;1158;48.750;9.078;2023-07-28T02:45:32;6.30;;;5.70;;
2299;SDS011;1158;48.750;9.078;2023-07-28T02:47:59;9.70;;;5.30;;
2299;SDS011;1158;48.750;9.078;2023-07-28T02:50:26;9.80;;;6.40;;
2299;SDS011;1158;48.750;9.078;2023-07-28T02:52:54;6.43;;;5.03;;
2299;SDS011;1158;48.750;9.078;2023-07-28T02:55:21;10.83;;;5.97;;
2299;SDS011;1158;48.750;9.078;2023-07-28T02:57:47;8.30;;;5.93;;
2299;SDS011;1158;48.750;9.078;2023-07-28T03:00:14;8.50;;;5.60;;
2299;SDS011;1158;48.750;9.078;2023-07-28T03:02:41;7.07;;;5.07;;
2299;SDS011;1158;48.750;9.078;2023-07-28T03:05:08;6.80;;;4.87;;
2299;SDS011;1158;48.750;9.078;2023-07-28T03:07:34;7.50;;;5.57;;
2299;SDS011;1158;48.750;9.078;2023-07-28T03:10:03;7.60;;;5.60;;
2299;SDS011;1158;48.750;9.078;2023-07-28T03:12:30;7.50;;;4.90;;
2299;SDS011;1158;48.750;9.078;2023-07-28T03:14:56;6.57;;;5.10;;
2299;SDS011;1158;48.750;9.078;2023-07-28T03:17:23;8.50;;;5.50;;
2299;SDS011;1158;48.750;9.078;2023-07-28T03:19:50;9.13;;;5.00;;
2299;SDS011;1158;48.750;9.078;2023-07-28T03:22:17;6.77;;;5.27;;
2299;SDS011;1158;48.750;9.078;2023-07-28T03:24:44;6.87;;;5.37;;
2299;SDS011;1158;48.750;9.078;2023-07-28T03:27:12;7.70;;;4.80;;
2299;SDS011;1158;48.750;9.078;2023-07-28T03:29:39;5.67;;;4.10;;
2299;SDS011;1158;48.750;9.078;2023-07-28T03:32:06;6.20;;;4.53;;
2299;SDS011;1158;48.750;9.078;2023-07-28T03:34:33;6.23;;;5.00;;
2299;SDS011;1158;48.750;9.078;2023-07-28T03:36:59;7.87;;;4.80;;
2299;SDS011;1158;48.750;9.078;2023-07-28T03:39:26;5.50;;;4.63;;
2299;SDS011;1158;48.750;9.078;2023-07-28T03:41:53;8.80;;;4.30;;
2299;SDS011;1158;48.750;9.078;2023-07-28T03:44:21;5.13;;;4.47;;
2299;SDS011;1158;48.750;9.078;2023-07-28T03:46:48;8.93;;;4.83;;
2299;SDS011;1158;48.750;9.078;2023-07-28T03:49:14;5.60;;;4.53;;
2299;SDS011;1158;48.750;9.078;2023-07-28T03:51:41;6.13;;;4.93;;
2299;SDS011;1158;48.750;9.078;2023-07-28T03:54:08;6.90;;;4.50;;
2299;SDS011;1158;48.750;9.078;2023-07-28T03:56:35;7.23;;;4.87;;
2299;SDS011;1158;48.750;9.078;2023-07-28T03:59:01;5.53;;;3.80;;
2299;SDS011;1158;48.750;9.078;2023-07-28T04:01:29;7.57;;;4.63;;
2299;SDS011;1158;48.750;9.078;2023-07-28T04:03:56;8.90;;;4.67;;
2299;SDS011;1158;48.750;9.078;2023-07-28T04:09:05;6.97;;;4.70;;
2299;SDS011;1158;48.750;9.078;2023-07-28T04:11:32;8.03;;;4.63;;
2299;SDS011;1158;48.750;9.078;2023-07-28T04:13:59;5.77;;;4.40;;
2299;SDS011;1158;48.750;9.078;2023-07-28T04:16:26;5.60;;;4.50;;
2299;SDS011;1158;48.750;9.078;2023-07-28T04:18:54;10.30;;;4.83;;
2299;SDS011;1158;48.750;9.078;2023-07-28T04:21:21;6.33;;;4.30;;
2299;SDS011;1158;48.750;9.078;2023-07-28T04:23:47;4.93;;;3.73;;
2299;SDS011;1158;48.750;9.078;2023-07-28T04:26:14;6.47;;;3.70;;
2299;SDS011;1158;48.750;9.078;2023-07-28T04:28:41;8.50;;;4.50;;
2299;SDS011;1158;48.750;9.078;2023-07-28T04:31:08;6.67;;;5.67;;
2299;SDS011;1158;48.750;9.078;2023-07-28T04:33:35;7.33;;;5.10;;
2299;SDS011;1158;48.750;9.078;2023-07-28T04:36:03;10.47;;;4.77;;
2299;SDS011;1158;48.750;9.078;2023-07-28T04:38:30;7.13;;;4.43;;
2299;SDS011;1158;48.750;9.078;2023-07-28T04:40:57;7.10;;;4.10;;
2299;SDS011;1158;48.750;9.078;2023-07-28T04:43:24;5.50;;;4.20;;
2299;SDS011;1158;48.750;9.078;2023-07-28T04:45:50;4.70;;;3.87;;
2299;SDS011;1158;48.750;9.078;2023-07-28T04:48:17;13.23;;;4.90;;
2299;SDS011;1158;48.750;9.078;2023-07-28T04:50:44;4.50;;;3.70;;
2299;SDS011;1158;48.750;9.078;2023-07-28T04:53:12;6.83;;;4.33;;
2299;SDS011;1158;48.750;9.078;2023-07-28T04:55:39;5.10;;;4.40;;
2299;SDS011;1158;48.750;9.078;2023-07-28T04:58:06;6.60;;;4.40;;
2299;SDS011;1158;48.750;9.078;2023-07-28T05:00:32;7.43;;;4.87;;
2299;SDS011;1158;48.750;9.078;2023-07-28T05:02:59;8.13;;;5.30;;
2299;SDS011;1158;48.750;9.078;2023-07-28T05:05:26;5.83;;;4.43;;
2299;SDS011;1158;48.750;9.078;2023-07-28T05:07:54;5.30;;;4.13;;
2299;SDS011;1158;48.750;9.078;2023-07-28T05:10:22;5.87;;;4.70;;
2299;SDS011;1158;48.750;9.078;2023-07-28T05:12:49;7.07;;;4.80;;
2299;SDS011;1158;48.750;9.078;2023-07-28T05:15:17;6.37;;;4.53;;
2299;SDS011;1158;48.750;9.078;2023-07-28T05:17:44;6.70;;;5.40;;
2299;SDS011;1158;48.750;9.078;2023-07-28T05:20:11;6.23;;;5.23;;
2299;SDS011;1158;48.750;9.078;2023-07-28T05:22:38;9.63;;;5.90;;
2299;SDS011;1158;48.750;9.078;2023-07-28T05:25:05;9.93;;;5.50;;
2299;SDS011;1158;48.750;9.078;2023-07-28T05:27:33;7.13;;;5.30;;
2299;SDS011;1158;48.750;9.078;2023-07-28T05:30:00;7.07;;;4.77;;
2299;SDS011;1158;48.750;9.078;2023-07-28T05:32:27;6.50;;;5.13;;
2299;SDS011;1158;48.750;9.078;2023-07-28T05:34:54;6.33;;;5.07;;
2299;SDS011;1158;48.750;9.078;2023-07-28T05:37:20;8.43;;;5.03;;
2299;SDS011;1158;48.750;9.078;2023-07-28T05:39:47;7.33;;;4.83;;
2299;SDS011;1158;48.750;9.078;2023-07-28T05:42:14;6.00;;;4.80;;
2299;SDS011;1158;48.750;9.078;2023-07-28T05:44:42;7.20;;;4.90;;
2299;SDS011;1158;48.750;9.078;2023-07-28T05:47:09;6.47;;;5.10;;
2299;SDS011;1158;48.750;9.078;2023-07-28T05:49:36;8.13;;;4.97;;
2299;SDS011;1158;48.750;9.078;2023-07-28T05:52:03;6.77;;;5.17;;
2299;SDS011;1158;48.750;9.078;2023-07-28T05:54:30;7.10;;;4.60;;
2299;SDS011;1158;48.750;9.078;2023-07-28T05:56:57;6.50;;;4.47;;
2299;SDS011;1158;48.750;9.078;2023-07-28T05:59:24;6.80;;;5.40;;
2299;SDS011;1158;48.750;9.078;2023-07-28T06:01:52;8.37;;;5.40;;
2299;SDS011;1158;48.750;9.078;2023-07-28T06:04:19;7.37;;;4.87;;
2299;SDS011;1158;48.750;9.078;2023-07-28T06:06:46;11.80;;;5.53;;
2299;SDS011;1158;48.750;9.078;2023-07-28T06:09:13;7.00;;;5.60;;
2299;SDS011;1158;48.750;9.078;2023-07-28T06:11:40;12.03;;;5.50;;
2299;SDS011;1158;48.750;9.078;2023-07-28T06:14:07;7.50;;;4.97;;
2299;SDS011;1158;48.750;9.078;2023-07-28T06:16:33;8.80;;;5.03;;
2299;SDS011;1158;48.750;9.078;2023-07-28T06:19:02;8.20;;;5.30;;
2299;SDS011;1158;48.750;9.078;2023-07-28T06:21:29;8.20;;;5.50;;
2299;SDS011;1158;48.750;9.078;2023-07-28T06:23:56;10.20;;;5.53;;
2299;SDS011;1158;48.750;9.078;2023-07-28T06:26:23;6.77;;;5.33;;
2299;SDS011;1158;48.750;9.078;2023-07-28T06:28:50;8.60;;;5.57;;
2299;SDS011;1158;48.750;9.078;2023-07-28T06:31:16;6.80;;;5.27;;
2299;SDS011;1158;48.750;9.078;2023-07-28T06:33:43;7.30;;;4.90;;
2299;SDS011;1158;48.750;9.078;2023-07-28T06:36:11;7.43;;;5.50;;
2299;SDS011;1158;48.750;9.078;2023-07-28T06:38:38;9.07;;;5.60;;
2299;SDS011;1158;48.750;9.078;2023-07-28T06:41:05;7.07;;;5.33;;
2299;SDS011;1158;48.750;9.078;2023-07-28T06:43:31;10.07;;;5.63;;
2299;SDS011;1158;48.750;9.078;2023-07-28T06:45:58;7.50;;;5.60;;
2299;SDS011;1158;48.750;9.078;2023-07-28T06:48:25;6.90;;;5.00;;
2299;SDS011;1158;48.750;9.078;2023-07-28T06:50:52;6.00;;;4.43;;
2299;SDS011;1158;48.750;9.078;2023-07-28T06:53:20;8.73;;;5.17;;
2299;SDS011;1158;48.750;9.078;2023-07-28T06:55:46;8.80;;;5.47;;
2299;SDS011;1158;48.750;9.078;2023-07-28T06:58:13;10.90;;;5.23;;
2299;SDS011;1158;48.750;9.078;2023-07-28T07:00:40;6.97;;;5.40;;
2299;SDS011;1158;48.750;9.078;2023-07-28T07:03:07;8.47;;;4.83;;
2299;SDS011;1158;48.750;9.078;2023-07-28T07:05:33;9.80;;;5.00;;
2299;SDS011;1158;48.750;9.078;2023-07-28T07:08:00;7.20;;;5.00;;
2299;SDS011;1158;48.750;9.078;2023-07-28T07:10:28;9.57;;;4.10;;
2299;SDS011;1158;48.750;9.078;2023-07-28T07:12:55;7.10;;;5.10;;
2299;SDS011;1158;48.750;9.078;2023-07-28T07:15:22;6.83;;;4.93;;
2299;SDS011;1158;48.750;9.078;2023-07-28T07:17:49;15.23;;;4.67;;
2299;SDS011;1158;48.750;9.078;2023-07-28T07:20:16;5.80;;;4.40;;
2299;SDS011;1158;48.750;9.078;2023-07-28T07:22:42;6.63;;;4.40;;
2299;SDS011;1158;48.750;9.078;2023-07-28T07:25:09;6.80;;;4.60;;
2299;SDS011;1158;48.750;9.078;2023-07-28T07:27:37;8.70;;;4.23;;
2299;SDS011;1158;48.750;9.078;2023-07-28T07:30:05;7.27;;;4.03;;
2299;SDS011;1158;48.750;9.078;2023-07-28T07:32:33;9.63;;;4.40;;
2299;SDS011;1158;48.750;9.078;2023-07-28T07:35:00;9.53;;;4.80;;
2299;SDS011;1158;48.750;9.078;2023-07-28T07:37:26;7.40;;;4.30;;
2299;SDS011;1158;48.750;9.078;2023-07-28T07:39:53;7.63;;;4.10;;
2299;SDS011;1158;48.750;9.078;2023-07-28T07:42:20;6.13;;;4.30;;
2299;SDS011;1158;48.750;9.078;2023-07-28T07:44:48;7.03;;;4.20;;
2299;SDS011;1158;48.750;9.078;2023-07-28T07:47:15;5.27;;;4.13;;
2299;SDS011;1158;48.750;9.078;2023-07-28T07:49:42;7.07;;;4.40;;
2299;SDS011;1158;48.750;9.078;2023-07-28T07:52:09;4.77;;;4.10;;
2299;SDS011;1158;48.750;9.078;2023-07-28T07:54:37;6.53;;;4.30;;
2299;SDS011;1158;48.750;9.078;2023-07-28T07:57:04;4.93;;;3.93;;
2299;SDS011;1158;48.750;9.078;2023-07-28T07:59:31;6.90;;;3.90;;
2299;SDS011;1158;48.750;9.078;2023-07-28T08:02:00;6.47;;;3.60;;
2299;SDS011;1158;48.750;9.078;2023-07-28T08:04:28;5.23;;;3.90;;
2299;SDS011;1158;48.750;9.078;2023-07-28T08:06:55;4.23;;;3.10;;
2299;SDS011;1158;48.750;9.078;2023-07-28T08:09:22;5.43;;;3.83;;
2299;SDS011;1158;48.750;9.078;2023-07-28T08:11:49;6.53;;;3.43;;
2299;SDS011;1158;48.750;9.078;2023-07-28T08:14:16;6.80;;;3.33;;
2299;SDS011;1158;48.750;9.078;2023-07-28T08:16:43;5.67;;;4.23;;
2299;SDS011;1158;48.750;9.078;2023-07-28T08:19:11;5.40;;;4.17;;
2299;SDS011;1158;48.750;9.078;2023-07-28T08:21:37;5.03;;;3.80;;
2299;SDS011;1158;48.750;9.078;2023-07-28T08:24:04;5.27;;;3.70;;
2299;SDS011;1158;48.750;9.078;2023-07-28T08:26:31;6.27;;;3.83;;
2299;SDS011;1158;48.750;9.078;2023-07-28T08:28:58;7.10;;;3.50;;
2299;SDS011;1158;48.750;9.078;2023-07-28T08:31:25;5.83;;;3.70;;
2299;SDS011;1158;48.750;9.078;2023-07-28T08:33:51;6.40;;;3.60;;
2299;SDS011;1158;48.750;9.078;2023-07-28T08:36:19;5.10;;;3.53;;
2299;SDS011;1158;48.750;9.078;2023-07-28T08:38:46;6.67;;;3.47;;
2299;SDS011;1158;48.750;9.078;2023-07-28T08:41:14;5.70;;;3.10;;
2299;SDS011;1158;48.750;9.078;2023-07-28T08:43:40;4.50;;;3.50;;
2299;SDS011;1158;48.750;9.078;2023-07-28T08:46:08;4.10;;;3.03;;
2299;SDS011;1158;48.750;9.078;2023-07-28T08:48:35;5.67;;;3.40;;
2299;SDS011;1158;48.750;9.078;2023-07-28T08:51:01;7.00;;;3.87;;
2299;SDS011;1158;48.750;9.078;2023-07-28T08:53:30;6.03;;;3.90;;
2299;SDS011;1158;48.750;9.078;2023-07-28T08:55:57;4.53;;;3.20;;
2299;SDS011;1158;48.750;9.078;2023-07-28T08:58:24;4.73;;;3.37;;
2299;SDS011;1158;48.750;9.078;2023-07-28T09:00:51;5.13;;;3.10;;
2299;SDS011;1158;48.750;9.078;2023-07-28T09:03:19;5.93;;;3.20;;
2299;SDS011;1158;48.750;9.078;2023-07-28T09:05:46;5.13;;;3.30;;
2299;SDS011;1158;48.750;9.078;2023-07-28T09:08:13;5.27;;;3.60;;
2299;SDS011;1158;48.750;9.078;2023-07-28T09:10:42;6.37;;;3.57;;
2299;SDS011;1158;48.750;9.078;2023-07-28T09:13:09;4.17;;;3.40;;
2299;SDS011;1158;48.750;9.078;2023-07-28T09:15:37;4.93;;;3.47;;
2299;SDS011;1158;48.750;9.078;2023-07-28T09:18:04;3.90;;;2.93;;
2299;SDS011;1158;48.750;9.078;2023-07-28T09:20:34;5.00;;;3.27;;
2299;SDS011;1158;48.750;9.078;2023-07-28T09:23:02;5.40;;;3.70;;
2299;SDS011;1158;48.750;9.078;2023-07-28T09:25:30;5.17;;;3.30;;
2299;SDS011;1158;48.750;9.078;2023-07-28T09:27:59;4.70;;;3.10;;
2299;SDS011;1158;48.750;9.078;2023-07-28T09:30:26;5.90;;;3.03;;
2299;SDS011;1158;48.750;9.078;2023-07-28T09:32:54;4.90;;;3.23;;
2299;SDS011;1158;48.750;9.078;2023-07-28T09:35:21;3.60;;;3.03;;
2299;SDS011;1158;48.750;9.078;2023-07-28T09:37:49;3.60;;;2.90;;
2299;SDS011;1158;48.750;9.078;2023-07-28T09:40:18;4.70;;;2.63;;
2299;SDS011;1158;48.750;9.078;2023-07-28T09:42:47;5.83;;;3.23;;
2299;SDS011;1158;48.750;9.078;2023-07-28T09:45:17;3.97;;;2.97;;
2299;SDS011;1158;48.750;9.078;2023-07-28T09:47:44;3.40;;;2.30;;
2299;SDS011;1158;48.750;9.078;2023-07-28T09:50:14;4.73;;;2.37;;
2299;SDS011;1158;48.750;9.078;2023-07-28T09:52:43;3.83;;;2.93;;
2299;SDS011;1158;48.750;9.078;2023-07-28T09:55:12;3.60;;;3.07;;
2299;SDS011;1158;48.750;9.078;2023-07-28T09:57:43;5.00;;;2.80;;
2299;SDS011;1158;48.750;9.078;2023-07-28T10:00:13;3.23;;;2.60;;
2299;SDS011;1158;48.750;9.078;2023-07-28T10:02:42;4.43;;;2.77;;
2299;SDS011;1158;48.750;9.078;2023-07-28T10:05:10;4.50;;;2.40;;
2299;SDS011;1158;48.750;9.078;2023-07-28T10:07:40;3.23;;;1.93;;
2299;SDS011;1158;48.750;9.078;2023-07-28T10:10:09;2.37;;;1.60;;
2299;SDS011;1158;48.750;9.078;2023-07-28T10:12:41;2.47;;;1.70;;
2299;SDS011;1158;48.750;9.078;2023-07-28T10:15:11;2.77;;;1.60;;
2299;SDS011;1158;48.750;9.078;2023-07-28T10:17:44;2.90;;;1.90;;
2299;SDS011;1158;48.750;9.078;2023-07-28T10:20:29;5.30;;;1.97;;
2299;SDS011;1158;48.750;9.078;2023-07-28T10:23:03;3.40;;;1.90;;
2299;SDS011;1158;48.750;9.078;2023-07-28T10:25:32;3.87;;;1.50;;
2299;SDS011;1158;48.750;9.078;2023-07-28T10:28:00;3.30;;;1.57;;
2299;SDS011;1158;48.750;9.078;2023-07-28T10:30:29;3.03;;;1.90;;
2299;SDS011;1158;48.750;9.078;2023-07-28T10:33:02;2.47;;;1.50;;
2299;SDS011;1158;48.750;9.078;2023-07-28T10:35:29;2.20;;;1.70;;
2299;SDS011;1158;48.750;9.078;2023-07-28T10:38:00;3.20;;;1.80;;
2299;SDS011;1158;48.750;9.078;2023-07-28T10:41:05;1.90;;;1.20;;
2299;SDS011;1158;48.750;9.078;2023-07-28T10:43:37;2.70;;;1.50;;
2299;SDS011;1158;48.750;9.078;2023-07-28T10:46:05;3.20;;;1.50;;
2299;SDS011;1158;48.750;9.078;2023-07-28T10:48:35;2.43;;;1.40;;
2299;SDS011;1158;48.750;9.078;2023-07-28T10:51:03;2.40;;;1.47;;
2299;SDS011;1158;48.750;9.078;2023-07-28T10:53:31;4.10;;;2.10;;
2299;SDS011;1158;48.750;9.078;2023-07-28T10:55:59;2.43;;;1.20;;
2299;SDS011;1158;48.750;9.078;2023-07-28T10:58:29;2.77;;;1.30;;
2299;SDS011;1158;48.750;9.078;2023-07-28T11:00:57;2.83;;;1.30;;
2299;SDS011;1158;48.750;9.078;2023-07-28T11:03:24;3.20;;;1.23;;
2299;SDS011;1158;48.750;9.078;2023-07-28T11:05:53;2.30;;;1.47;;
2299;SDS011;1158;48.750;9.078;2023-07-28T11:08:21;2.63;;;1.60;;
2299;SDS011;1158;48.750;9.078;2023-07-28T11:10:48;2.23;;;1.30;;
2299;SDS011;1158;48.750;9.078;2023-07-28T11:13:16;2.70;;;1.40;;
2299;SDS011;1158;48.750;9.078;2023-07-28T11:15:43;2.20;;;1.60;;
2299;SDS011;1158;48.750;9.078;2023-07-28T11:18:10;4.90;;;2.23;;
2299;SDS011;1158;48.750;9.078;2023-07-28T11:20:36;2.50;;;1.77;;
2299;SDS011;1158;48.750;9.078;2023-07-28T11:23:05;2.90;;;2.10;;
2299;SDS011;1158;48.750;9.078;2023-07-28T11:25:32;2.83;;;1.97;;
2299;SDS011;1158;48.750;9.078;2023-07-28T11:28:02;2.50;;;1.80;;
2299;SDS011;1158;48.750;9.078;2023-07-28T11:30:31;7.93;;;4.03;;
2299;SDS011;1158;48.750;9.078;2023-07-28T11:32:58;14.97;;;6.97;;
2299;SDS011;1158;48.750;9.078;2023-07-28T11:35:25;3.10;;;1.90;;
2299;SDS011;1158;48.750;9.078;2023-07-28T11:37:52;4.20;;;2.30;;
2299;SDS011;1158;48.750;9.078;2023-07-28T11:40:22;10.23;;;5.40;;
2299;SDS011;1158;48.750;9.078;2023-07-28T11:42:51;2.50;;;1.40;;
2299;SDS011;1158;48.750;9.078;2023-07-28T11:45:20;2.80;;;1.60;;
2299;SDS011;1158;48.750;9.078;2023-07-28T11:47:56;2.47;;;1.67;;
2299;SDS011;1158;48.750;9.078;2023-07-28T11:50:24;4.50;;;2.17;;
2299;SDS011;1158;48.750;9.078;2023-07-28T11:52:53;2.77;;;1.80;;
2299;SDS011;1158;48.750;9.078;2023-07-28T11:55:22;3.20;;;2.20;;
2299;SDS011;1158;48.750;9.078;2023-07-28T11:57:49;3.43;;;2.50;;
2299;SDS011;1158;48.750;9.078;2023-07-28T12:00:18;3.60;;;2.87;;
2299;SDS011;1158;48.750;9.078;2023-07-28T12:03:00;8.77;;;3.40;;
2299;SDS011;1158;48.750;9.078;2023-07-28T12:05:29;10.80;;;6.47;;
2299;SDS011;1158;48.750;9.078;2023-07-28T12:07:56;8.83;;;3.90;;
2299;SDS011;1158;48.750;9.078;2023-07-28T12:10:24;7.40;;;4.30;;
2299;SDS011;1158;48.750;9.078;2023-07-28T12:12:51;6.60;;;3.70;;
2299;SDS011;1158;48.750;9.078;2023-07-28T12:15:19;8.10;;;4.60;;
2299;SDS011;1158;48.750;9.078;2023-07-28T12:18:03;4.30;;;3.30;;
2299;SDS011;1158;48.750;9.078;2023-07-28T12:20:35;4.20;;;2.90;;
2299;SDS011;1158;48.750;9.078;2023-07-28T12:23:06;5.47;;;3.53;;
2299;SDS011;1158;48.750;9.078;2023-07-28T12:25:36;5.03;;;3.17;;
2299;SDS011;1158;48.750;9.078;2023-07-28T12:28:03;5.00;;;3.10;;
2299;SDS011;1158;48.750;9.078;2023-07-28T12:30:30;3.90;;;3.03;;
2299;SDS011;1158;48.750;9.078;2023-07-28T12:32:57;5.33;;;3.40;;
2299;SDS011;1158;48.750;9.078;2023-07-28T12:35:25;4.40;;;2.87;;
2299;SDS011;1158;48.750;9.078;2023-07-28T12:37:56;3.90;;;2.77;;
2299;SDS011;1158;48.750;9.078;2023-07-28T12:40:24;5.13;;;3.10;;
2299;SDS011;1158;48.750;9.078;2023-07-28T12:42:53;4.23;;;3.30;;
2299;SDS011;1158;48.750;9.078;2023-07-28T12:45:20;4.27;;;2.90;;
2299;SDS011;1158;48.750;9.078;2023-07-28T12:47:47;4.10;;;2.80;;
2299;SDS011;1158;48.750;9.078;2023-07-28T12:50:14;5.00;;;3.20;;
2299;SDS011;1158;48.750;9.078;2023-07-28T12:52:41;4.63;;;3.20;;
2299;SDS011;1158;48.750;9.078;2023-07-28T12:55:08;5.87;;;3.20;;
2299;SDS011;1158;48.750;9.078;2023-07-28T12:57:34;6.40;;;3.77;;
2299;SDS011;1158;48.750;9.078;2023-07-28T13:00:03;4.70;;;3.33;;
2299;SDS011;1158;48.750;9.078;2023-07-28T13:02:37;3.90;;;2.73;;
2299;SDS011;1158;48.750;9.078;2023-07-28T13:05:04;4.03;;;3.10;;
2299;SDS011;1158;48.750;9.078;2023-07-28T13:07:32;4.50;;;3.33;;
2299;SDS011;1158;48.750;9.078;2023-07-28T13:09:58;5.07;;;3.10;;
2299;SDS011;1158;48.750;9.078;2023-07-28T13:12:25;4.50;;;3.50;;
2299;SDS011;1158;48.750;9.078;2023-07-28T13:14:52;6.00;;;2.80;;
2299;SDS011;1158;48.750;9.078;2023-07-28T13:17:20;3.80;;;3.00;;
2299;SDS011;1158;48.750;9.078;2023-07-28T13:19:47;4.90;;;3.37;;
2299;SDS011;1158;48.750;9.078;2023-07-28T13:22:13;4.13;;;3.30;;
2299;SDS011;1158;48.750;9.078;2023-07-28T13:24:40;6.83;;;3.33;;
2299;SDS011;1158;48.750;9.078;2023-07-28T13:27:08;4.20;;;2.90;;
2299;SDS011;1158;48.750;9.078;2023-07-28T13:29:35;4.63;;;3.20;;
2299;SDS011;1158;48.750;9.078;2023-07-28T13:32:02;3.87;;;3.00;;
2299;SDS011;1158;48.750;9.078;2023-07-28T13:34:31;4.93;;;3.20;;
2299;SDS011;1158;48.750;9.078;2023-07-28T13:36:57;4.50;;;3.30;;
2299;SDS011;1158;48.750;9.078;2023-07-28T13:39:24;6.57;;;3.70;;
2299;SDS011;1158;48.750;9.078;2023-07-28T13:41:51;6.70;;;3.87;;
2299;SDS011;1158;48.750;9.078;2023-07-28T13:44:17;6.07;;;3.50;;
2299;SDS011;1158;48.750;9.078;2023-07-28T13:46:44;6.87;;;3.60;;
2299;SDS011;1158;48.750;9.078;2023-07-28T13:49:11;7.63;;;4.50;;
2299;SDS011;1158;48.750;9.078;2023-07-28T13:51:39;8.20;;;4.20;;
2299;SDS011;1158;48.750;9.078;2023-07-28T13:54:06;7.73;;;4.83;;
2299;SDS011;1158;48.750;9.078;2023-07-28T13:56:33;7.53;;;4.27;;
2299;SDS011;1158;48.750;9.078;2023-07-28T13:58:59;6.67;;;4.10;;
2299;SDS011;1158;48.750;9.078;2023-07-28T14:01:26;7.30;;;5.00;;
2299;SDS011;1158;48.750;9.078;2023-07-28T14:03:53;6.10;;;4.20;;
2299;SDS011;1158;48.750;9.078;2023-07-28T14:06:20;10.40;;;5.33;;
2299;SDS011;1158;48.750;9.078;2023-07-28T14:08:48;6.40;;;4.33;;
2299;SDS011;1158;48.750;9.078;2023-07-28T14:11:15;7.00;;;5.50;;
2299;SDS011;1158;48.750;9.078;2023-07-28T14:13:42;8.33;;;5.60;;
2299;SDS011;1158;48.750;9.078;2023-07-28T14:16:08;6.67;;;5.33;;
2299;SDS011;1158;48.750;9.078;2023-07-28T14:18:36;8.30;;;5.10;;
2299;SDS011;1158;48.750;9.078;2023-07-28T14:21:02;8.77;;;5.60;;
2299;SDS011;1158;48.750;9.078;2023-07-28T14:23:29;7.80;;;5.57;;
2299;SDS011;1158;48.750;9.078;2023-07-28T14:25:57;8.00;;;5.00;;
2299;SDS011;1158;48.750;9.078;2023-07-28T14:28:24;8.90;;;4.97;;
2299;SDS011;1158;48.750;9.078;2023-07-28T14:30:51;6.50;;;5.37;;
2299;SDS011;1158;48.750;9.078;2023-07-28T14:33:18;8.03;;;4.70;;
2299;SDS011;1158;48.750;9.078;2023-07-28T14:35:45;6.37;;;4.70;;
2299;SDS011;1158;48.750;9.078;2023-07-28T14:38:13;7.10;;;4.97;;
2299;SDS011;1158;48.750;9.078;2023-07-28T14:40:41;9.30;;;5.13;;
2299;SDS011;1158;48.750;9.078;2023-07-28T14:43:13;9.47;;;4.73;;
2299;SDS011;1158;48.750;9.078;2023-07-28T14:45:39;7.43;;;5.13;;
2299;SDS011;1158;48.750;9.078;2023-07-28T14:48:06;8.27;;;6.03;;
2299;SDS011;1158;48.750;9.078;2023-07-28T14:50:33;8.77;;;5.70;;
2299;SDS011;1158;48.750;9.078;2023-07-28T14:53:00;7.63;;;5.77;;
2299;SDS011;1158;48.750;9.078;2023-07-28T14:55:26;9.40;;;6.60;;
2299;SDS011;1158;48.750;9.078;2023-07-28T14:57:53;12.27;;;5.53;;
2299;SDS011;1158;48.750;9.078;2023-07-28T15:00:21;7.80;;;5.37;;
2299;SDS011;1158;48.750;9.078;2023-07-28T15:02:48;8.03;;;5.40;;
2299;SDS011;1158;48.750;9.078;2023-07-28T15:05:15;6.47;;;4.67;;
2299;SDS011;1158;48.750;9.078;2023-07-28T15:07:42;6.97;;;4.90;;
2299;SDS011;1158;48.750;9.078;2023-07-28T15:10:09;5.37;;;4.30;;
2299;SDS011;1158;48.750;9.078;2023-07-28T15:12:36;8.93;;;5.30;;
2299;SDS011;1158;48.750;9.078;2023-07-28T15:15:03;7.07;;;4.60;;
2299;SDS011;1158;48.750;9.078;2023-07-28T15:17:32;9.80;;;4.90;;
2299;SDS011;1158;48.750;9.078;2023-07-28T15:19:59;8.10;;;4.87;;